sensor_id;sensor_type;location;lat;lon;timestamp;temperature;humidity
14585;DHT22;7379;51.506;11.876;2023-05-23T00:00:40;22.30;59.00
14585;DHT22;7379;51.506;11.876;2023-05-23T00:03:07;22.30;59.10
14585;DHT22;7379;51.506;11.876;2023-05-23T00:05:35;22.20;59.20
14585;DHT22;7379;51.506;11.876;2023-05-23T00:08:02;22.20;59.30
14585;DHT22;7379;51.506;11.876;2023-05-23T00:10:30;22.20;59.40
14585;DHT22;7379;51.506;11.876;2023-05-23T00:12:57;22.20;59.60
14585;DHT22;7379;51.506;11.876;2023-05-23T00:15:24;22.20;59.60
14585;DHT22;7379;51.506;11.876;2023-05-23T00:17:51;22.20;59.70
14585;DHT22;7379;51.506;11.876;2023-05-23T00:20:18;22.20;59.80
14585;DHT22;7379;51.506;11.876;2023-05-23T00:22:45;22.20;59.90
14585;DHT22;7379;51.506;11.876;2023-05-23T00:25:12;22.10;59.90
14585;DHT22;7379;51.506;11.876;2023-05-23T00:27:40;22.10;59.90
14585;DHT22;7379;51.506;11.876;2023-05-23T00:30:07;22.10;60.00
14585;DHT22;7379;51.506;11.876;2023-05-23T00:32:34;22.10;60.20
14585;DHT22;7379;51.506;11.876;2023-05-23T00:35:01;22.10;60.30
14585;DHT22;7379;51.506;11.876;2023-05-23T00:37:28;22.10;60.40
14585;DHT22;7379;51.506;11.876;2023-05-23T00:39:55;22.10;60.60
14585;DHT22;7379;51.506;11.876;2023-05-23T00:42:21;22.00;61.30
14585;DHT22;7379;51.506;11.876;2023-05-23T00:44:49;22.00;60.70
14585;DHT22;7379;51.506;11.876;2023-05-23T00:47:16;22.00;60.80
14585;DHT22;7379;51.506;11.876;2023-05-23T00:49:43;22.00;61.10
14585;DHT22;7379;51.506;11.876;2023-05-23T00:52:10;22.00;61.30
14585;DHT22;7379;51.506;11.876;2023-05-23T00:54:38;21.90;61.40
14585;DHT22;7379;51.506;11.876;2023-05-23T00:57:06;21.90;61.60
14585;DHT22;7379;51.506;11.876;2023-05-23T00:59:35;21.90;61.70
14585;DHT22;7379;51.506;11.876;2023-05-23T01:02:03;21.90;61.70
14585;DHT22;7379;51.506;11.876;2023-05-23T01:04:30;21.90;61.90
14585;DHT22;7379;51.506;11.876;2023-05-23T01:06:58;21.80;61.90
14585;DHT22;7379;51.506;11.876;2023-05-23T01:09:27;21.80;61.90
14585;DHT22;7379;51.506;11.876;2023-05-23T01:12:01;21.80;61.90
14585;DHT22;7379;51.506;11.876;2023-05-23T01:14:37;21.80;62.10
14585;DHT22;7379;51.506;11.876;2023-05-23T01:17:12;21.80;62.20
14585;DHT22;7379;51.506;11.876;2023-05-23T01:19:56;21.80;62.40
14585;DHT22;7379;51.506;11.876;2023-05-23T01:22:37;21.80;62.50
14585;DHT22;7379;51.506;11.876;2023-05-23T01:25:14;21.80;62.60
14585;DHT22;7379;51.506;11.876;2023-05-23T01:27:55;21.70;62.50
14585;DHT22;7379;51.506;11.876;2023-05-23T01:30:24;21.70;62.60
14585;DHT22;7379;51.506;11.876;2023-05-23T01:32:53;21.70;62.60
14585;DHT22;7379;51.506;11.876;2023-05-23T01:35:23;21.70;62.70
14585;DHT22;7379;51.506;11.876;2023-05-23T01:37:51;21.70;62.80
14585;DHT22;7379;51.506;11.876;2023-05-23T01:40:18;21.70;62.80
14585;DHT22;7379;51.506;11.876;2023-05-23T01:42:45;21.60;62.80
14585;DHT22;7379;51.506;11.876;2023-05-23T01:45:14;21.60;62.80
14585;DHT22;7379;51.506;11.876;2023-05-23T01:47:42;21.60;62.90
14585;DHT22;7379;51.506;11.876;2023-05-23T01:50:10;21.60;63.00
14585;DHT22;7379;51.506;11.876;2023-05-23T01:52:37;21.60;63.00
14585;DHT22;7379;51.506;11.876;2023-05-23T01:55:06;21.60;63.00
14585;DHT22;7379;51.506;11.876;2023-05-23T01:57:35;21.50;62.90
14585;DHT22;7379;51.506;11.876;2023-05-23T02:00:02;21.50;63.00
14585;DHT22;7379;51.506;11.876;2023-05-23T02:02:32;21.50;63.00
14585;DHT22;7379;51.506;11.876;2023-05-23T02:04:59;21.50;63.00
14585;DHT22;7379;51.506;11.876;2023-05-23T02:07:26;21.50;63.00
14585;DHT22;7379;51.506;11.876;2023-05-23T02:09:53;21.50;63.10
14585;DHT22;7379;51.506;11.876;2023-05-23T02:12:20;21.40;63.00
14585;DHT22;7379;51.506;11.876;2023-05-23T02:14:48;21.40;63.00
14585;DHT22;7379;51.506;11.876;2023-05-23T02:17:14;21.40;63.10
14585;DHT22;7379;51.506;11.876;2023-05-23T02:19:42;21.40;63.10
14585;DHT22;7379;51.506;11.876;2023-05-23T02:22:09;21.40;63.20
14585;DHT22;7379;51.506;11.876;2023-05-23T02:24:36;21.40;63.30
14585;DHT22;7379;51.506;11.876;2023-05-23T02:27:03;21.30;63.40
14585;DHT22;7379;51.506;11.876;2023-05-23T02:29:30;21.30;63.50
14585;DHT22;7379;51.506;11.876;2023-05-23T02:31:56;21.30;63.60
14585;DHT22;7379;51.506;11.876;2023-05-23T02:34:23;21.30;63.70
14585;DHT22;7379;51.506;11.876;2023-05-23T02:36:52;21.20;63.60
14585;DHT22;7379;51.506;11.876;2023-05-23T02:39:18;21.30;63.90
14585;DHT22;7379;51.506;11.876;2023-05-23T02:41:45;21.20;63.90
14585;DHT22;7379;51.506;11.876;2023-05-23T02:44:12;21.20;63.90
14585;DHT22;7379;51.506;11.876;2023-05-23T02:46:38;21.20;64.00
14585;DHT22;7379;51.506;11.876;2023-05-23T02:49:05;21.20;64.10
14585;DHT22;7379;51.506;11.876;2023-05-23T02:51:32;21.20;64.00
14585;DHT22;7379;51.506;11.876;2023-05-23T02:54:00;21.10;64.00
14585;DHT22;7379;51.506;11.876;2023-05-23T02:56:27;21.20;64.20
14585;DHT22;7379;51.506;11.876;2023-05-23T02:58:53;21.10;64.10
14585;DHT22;7379;51.506;11.876;2023-05-23T03:01:20;21.10;64.20
14585;DHT22;7379;51.506;11.876;2023-05-23T03:03:47;21.10;64.20
14585;DHT22;7379;51.506;11.876;2023-05-23T03:06:14;21.10;64.20
14585;DHT22;7379;51.506;11.876;2023-05-23T03:08:41;21.10;64.30
14585;DHT22;7379;51.506;11.876;2023-05-23T03:11:10;21.00;64.20
14585;DHT22;7379;51.506;11.876;2023-05-23T03:13:36;21.00;64.20
14585;DHT22;7379;51.506;11.876;2023-05-23T03:16:03;21.00;64.20
14585;DHT22;7379;51.506;11.876;2023-05-23T03:18:30;21.00;64.30
14585;DHT22;7379;51.506;11.876;2023-05-23T03:21:05;21.00;64.40
14585;DHT22;7379;51.506;11.876;2023-05-23T03:23:32;21.00;64.30
14585;DHT22;7379;51.506;11.876;2023-05-23T03:25:59;20.90;64.30
14585;DHT22;7379;51.506;11.876;2023-05-23T03:28:27;20.90;64.40
14585;DHT22;7379;51.506;11.876;2023-05-23T03:30:54;20.90;64.40
14585;DHT22;7379;51.506;11.876;2023-05-23T03:33:21;20.90;64.40
14585;DHT22;7379;51.506;11.876;2023-05-23T03:35:47;20.90;64.40
14585;DHT22;7379;51.506;11.876;2023-05-23T03:38:14;20.90;64.40
14585;DHT22;7379;51.506;11.876;2023-05-23T03:40:41;20.90;64.50
14585;DHT22;7379;51.506;11.876;2023-05-23T03:43:08;20.80;64.40
14585;DHT22;7379;51.506;11.876;2023-05-23T03:45:36;20.80;64.40
14585;DHT22;7379;51.506;11.876;2023-05-23T03:48:03;20.80;64.50
14585;DHT22;7379;51.506;11.876;2023-05-23T03:50:29;20.80;64.50
14585;DHT22;7379;51.506;11.876;2023-05-23T03:52:56;20.80;64.60
14585;DHT22;7379;51.506;11.876;2023-05-23T03:55:23;20.80;64.50
14585;DHT22;7379;51.506;11.876;2023-05-23T03:57:51;20.70;64.50
14585;DHT22;7379;51.506;11.876;2023-05-23T04:00:18;20.70;64.50
14585;DHT22;7379;51.506;11.876;2023-05-23T04:02:46;20.70;64.50
14585;DHT22;7379;51.506;11.876;2023-05-23T04:05:14;20.70;64.60
14585;DHT22;7379;51.506;11.876;2023-05-23T04:07:41;20.70;64.60
14585;DHT22;7379;51.506;11.876;2023-05-23T04:10:09;20.60;64.50
14585;DHT22;7379;51.506;11.876;2023-05-23T04:12:36;20.70;64.60
14585;DHT22;7379;51.506;11.876;2023-05-23T04:15:03;20.60;64.50
14585;DHT22;7379;51.506;11.876;2023-05-23T04:17:30;20.60;64.70
14585;DHT22;7379;51.506;11.876;2023-05-23T04:19:58;20.60;64.60
14585;DHT22;7379;51.506;11.876;2023-05-23T04:22:25;20.60;64.60
14585;DHT22;7379;51.506;11.876;2023-05-23T04:24:52;20.60;64.70
14585;DHT22;7379;51.506;11.876;2023-05-23T04:27:18;20.60;64.80
14585;DHT22;7379;51.506;11.876;2023-05-23T04:29:46;20.60;64.70
14585;DHT22;7379;51.506;11.876;2023-05-23T04:32:13;20.60;64.80
14585;DHT22;7379;51.506;11.876;2023-05-23T04:34:41;20.60;64.90
14585;DHT22;7379;51.506;11.876;2023-05-23T04:37:10;20.50;64.90
14585;DHT22;7379;51.506;11.876;2023-05-23T04:39:37;20.50;64.90
14585;DHT22;7379;51.506;11.876;2023-05-23T04:42:04;20.50;65.00
14585;DHT22;7379;51.506;11.876;2023-05-23T04:44:31;20.50;65.10
14585;DHT22;7379;51.506;11.876;2023-05-23T04:46:58;20.50;65.00
14585;DHT22;7379;51.506;11.876;2023-05-23T04:49:27;20.50;65.10
14585;DHT22;7379;51.506;11.876;2023-05-23T04:51:54;20.50;65.20
14585;DHT22;7379;51.506;11.876;2023-05-23T04:54:22;20.50;65.10
14585;DHT22;7379;51.506;11.876;2023-05-23T04:56:48;20.50;65.10
14585;DHT22;7379;51.506;11.876;2023-05-23T04:59:15;20.50;65.40
14585;DHT22;7379;51.506;11.876;2023-05-23T05:01:42;20.50;65.50
14585;DHT22;7379;51.506;11.876;2023-05-23T05:04:09;20.40;65.60
14585;DHT22;7379;51.506;11.876;2023-05-23T05:06:36;20.40;65.70
14585;DHT22;7379;51.506;11.876;2023-05-23T05:09:02;20.40;65.70
14585;DHT22;7379;51.506;11.876;2023-05-23T05:11:30;20.40;65.80
14585;DHT22;7379;51.506;11.876;2023-05-23T05:13:57;20.40;66.20
14585;DHT22;7379;51.506;11.876;2023-05-23T05:16:24;20.30;66.00
14585;DHT22;7379;51.506;11.876;2023-05-23T05:18:51;20.30;66.10
14585;DHT22;7379;51.506;11.876;2023-05-23T05:21:18;20.30;66.40
14585;DHT22;7379;51.506;11.876;2023-05-23T05:23:44;20.30;66.50
14585;DHT22;7379;51.506;11.876;2023-05-23T05:26:11;20.30;66.60
14585;DHT22;7379;51.506;11.876;2023-05-23T05:28:39;20.30;66.80
14585;DHT22;7379;51.506;11.876;2023-05-23T05:31:06;20.30;66.90
14585;DHT22;7379;51.506;11.876;2023-05-23T05:33:34;20.20;66.90
14585;DHT22;7379;51.506;11.876;2023-05-23T05:36:02;20.20;67.00
14585;DHT22;7379;51.506;11.876;2023-05-23T05:38:28;20.20;67.20
14585;DHT22;7379;51.506;11.876;2023-05-23T05:40:55;20.20;67.30
14585;DHT22;7379;51.506;11.876;2023-05-23T05:43:22;20.20;67.30
14585;DHT22;7379;51.506;11.876;2023-05-23T05:45:50;20.10;67.20
14585;DHT22;7379;51.506;11.876;2023-05-23T05:48:17;20.10;67.20
14585;DHT22;7379;51.506;11.876;2023-05-23T05:50:43;20.10;67.40
14585;DHT22;7379;51.506;11.876;2023-05-23T05:53:12;20.10;67.60
14585;DHT22;7379;51.506;11.876;2023-05-23T05:55:38;20.10;67.70
14585;DHT22;7379;51.506;11.876;2023-05-23T05:58:05;20.10;67.80
14585;DHT22;7379;51.506;11.876;2023-05-23T06:00:33;20.00;67.80
14585;DHT22;7379;51.506;11.876;2023-05-23T06:03:07;20.10;67.80
14585;DHT22;7379;51.506;11.876;2023-05-23T06:05:34;20.00;67.70
14585;DHT22;7379;51.506;11.876;2023-05-23T06:08:02;20.00;67.60
14585;DHT22;7379;51.506;11.876;2023-05-23T06:10:29;20.00;67.50
14585;DHT22;7379;51.506;11.876;2023-05-23T06:12:57;20.00;67.60
14585;DHT22;7379;51.506;11.876;2023-05-23T06:15:24;20.00;67.40
14585;DHT22;7379;51.506;11.876;2023-05-23T06:17:51;19.90;67.20
14585;DHT22;7379;51.506;11.876;2023-05-23T06:20:19;19.90;67.20
14585;DHT22;7379;51.506;11.876;2023-05-23T06:22:45;19.90;67.20
14585;DHT22;7379;51.506;11.876;2023-05-23T06:25:12;19.90;67.00
14585;DHT22;7379;51.506;11.876;2023-05-23T06:27:39;19.90;66.90
14585;DHT22;7379;51.506;11.876;2023-05-23T06:30:07;19.90;66.90
14585;DHT22;7379;51.506;11.876;2023-05-23T06:32:33;19.90;66.90
14585;DHT22;7379;51.506;11.876;2023-05-23T06:35:01;19.90;66.90
14585;DHT22;7379;51.506;11.876;2023-05-23T06:37:29;19.90;66.80
14585;DHT22;7379;51.506;11.876;2023-05-23T06:39:55;19.90;66.70
14585;DHT22;7379;51.506;11.876;2023-05-23T06:42:22;19.80;66.60
14585;DHT22;7379;51.506;11.876;2023-05-23T06:44:49;19.80;66.50
14585;DHT22;7379;51.506;11.876;2023-05-23T06:47:15;19.80;66.40
14585;DHT22;7379;51.506;11.876;2023-05-23T06:49:42;19.80;66.50
14585;DHT22;7379;51.506;11.876;2023-05-23T06:52:10;19.80;66.30
14585;DHT22;7379;51.506;11.876;2023-05-23T06:54:38;19.80;66.40
14585;DHT22;7379;51.506;11.876;2023-05-23T06:57:05;19.80;66.30
14585;DHT22;7379;51.506;11.876;2023-05-23T06:59:31;19.80;66.40
14585;DHT22;7379;51.506;11.876;2023-05-23T07:01:58;19.80;66.30
14585;DHT22;7379;51.506;11.876;2023-05-23T07:04:25;19.70;66.20
14585;DHT22;7379;51.506;11.876;2023-05-23T07:06:52;19.70;66.10
14585;DHT22;7379;51.506;11.876;2023-05-23T07:09:19;19.70;66.10
14585;DHT22;7379;51.506;11.876;2023-05-23T07:11:47;19.70;66.10
14585;DHT22;7379;51.506;11.876;2023-05-23T07:14:14;19.70;66.10
14585;DHT22;7379;51.506;11.876;2023-05-23T07:16:41;19.70;66.10
14585;DHT22;7379;51.506;11.876;2023-05-23T07:19:08;19.70;66.00
14585;DHT22;7379;51.506;11.876;2023-05-23T07:21:34;19.70;66.00
14585;DHT22;7379;51.506;11.876;2023-05-23T07:24:01;19.70;66.00
14585;DHT22;7379;51.506;11.876;2023-05-23T07:26:28;19.60;65.80
14585;DHT22;7379;51.506;11.876;2023-05-23T07:28:57;19.60;65.80
14585;DHT22;7379;51.506;11.876;2023-05-23T07:31:24;19.60;65.90
14585;DHT22;7379;51.506;11.876;2023-05-23T07:33:50;19.60;65.90
14585;DHT22;7379;51.506;11.876;2023-05-23T07:36:17;19.60;65.90
14585;DHT22;7379;51.506;11.876;2023-05-23T07:38:44;19.60;65.90
14585;DHT22;7379;51.506;11.876;2023-05-23T07:41:11;19.60;65.90
14585;DHT22;7379;51.506;11.876;2023-05-23T07:43:37;19.60;66.00
14585;DHT22;7379;51.506;11.876;2023-05-23T07:46:05;19.60;65.90
14585;DHT22;7379;51.506;11.876;2023-05-23T07:48:32;19.60;65.90
14585;DHT22;7379;51.506;11.876;2023-05-23T07:50:59;19.60;66.00
14585;DHT22;7379;51.506;11.876;2023-05-23T07:53:26;19.60;66.00
14585;DHT22;7379;51.506;11.876;2023-05-23T07:55:52;19.60;66.00
14585;DHT22;7379;51.506;11.876;2023-05-23T07:58:19;19.60;66.00
14585;DHT22;7379;51.506;11.876;2023-05-23T08:00:47;19.50;65.90
14585;DHT22;7379;51.506;11.876;2023-05-23T08:03:16;19.50;65.80
14585;DHT22;7379;51.506;11.876;2023-05-23T08:05:43;19.50;65.90
14585;DHT22;7379;51.506;11.876;2023-05-23T08:08:10;19.50;66.00
14585;DHT22;7379;51.506;11.876;2023-05-23T08:10:36;19.50;65.90
14585;DHT22;7379;51.506;11.876;2023-05-23T08:13:04;19.50;65.90
14585;DHT22;7379;51.506;11.876;2023-05-23T08:15:31;19.50;66.70
14585;DHT22;7379;51.506;11.876;2023-05-23T08:17:58;19.50;65.90
14585;DHT22;7379;51.506;11.876;2023-05-23T08:20:27;19.50;65.90
14585;DHT22;7379;51.506;11.876;2023-05-23T08:22:57;19.50;65.90
14585;DHT22;7379;51.506;11.876;2023-05-23T08:25:24;19.50;66.00
14585;DHT22;7379;51.506;11.876;2023-05-23T08:27:54;19.50;65.90
14585;DHT22;7379;51.506;11.876;2023-05-23T08:30:21;19.50;65.90
14585;DHT22;7379;51.506;11.876;2023-05-23T08:32:50;19.50;66.00
14585;DHT22;7379;51.506;11.876;2023-05-23T08:35:16;19.50;65.90
14585;DHT22;7379;51.506;11.876;2023-05-23T08:37:44;19.50;65.90
14585;DHT22;7379;51.506;11.876;2023-05-23T08:40:13;19.50;66.00
14585;DHT22;7379;51.506;11.876;2023-05-23T08:42:42;19.50;66.00
14585;DHT22;7379;51.506;11.876;2023-05-23T08:45:09;19.50;66.00
14585;DHT22;7379;51.506;11.876;2023-05-23T08:47:36;19.50;66.00
14585;DHT22;7379;51.506;11.876;2023-05-23T08:50:05;19.50;66.00
14585;DHT22;7379;51.506;11.876;2023-05-23T08:52:33;19.50;66.10
14585;DHT22;7379;51.506;11.876;2023-05-23T08:55:02;19.50;66.10
14585;DHT22;7379;51.506;11.876;2023-05-23T08:57:28;19.50;66.10
14585;DHT22;7379;51.506;11.876;2023-05-23T08:59:57;19.40;66.10
14585;DHT22;7379;51.506;11.876;2023-05-23T09:02:24;19.50;66.20
14585;DHT22;7379;51.506;11.876;2023-05-23T09:04:51;19.40;66.10
14585;DHT22;7379;51.506;11.876;2023-05-23T09:07:18;19.40;66.10
14585;DHT22;7379;51.506;11.876;2023-05-23T09:09:45;19.40;66.10
14585;DHT22;7379;51.506;11.876;2023-05-23T09:12:13;19.40;66.10
14585;DHT22;7379;51.506;11.876;2023-05-23T09:14:41;19.40;66.10
14585;DHT22;7379;51.506;11.876;2023-05-23T09:17:14;19.40;66.10
14585;DHT22;7379;51.506;11.876;2023-05-23T09:19:41;19.40;66.10
14585;DHT22;7379;51.506;11.876;2023-05-23T09:22:08;19.40;66.00
14585;DHT22;7379;51.506;11.876;2023-05-23T09:24:35;19.20;66.70
14585;DHT22;7379;51.506;11.876;2023-05-23T09:27:04;19.10;67.30
14585;DHT22;7379;51.506;11.876;2023-05-23T09:29:36;18.90;67.50
14585;DHT22;7379;51.506;11.876;2023-05-23T09:32:09;18.70;67.50
14585;DHT22;7379;51.506;11.876;2023-05-23T09:34:39;18.60;68.10
14585;DHT22;7379;51.506;11.876;2023-05-23T09:37:06;18.60;68.60
14585;DHT22;7379;51.506;11.876;2023-05-23T09:39:36;18.40;68.80
14585;DHT22;7379;51.506;11.876;2023-05-23T09:42:03;18.30;69.60
14585;DHT22;7379;51.506;11.876;2023-05-23T09:44:30;18.30;69.90
14585;DHT22;7379;51.506;11.876;2023-05-23T09:46:58;18.30;70.60
14585;DHT22;7379;51.506;11.876;2023-05-23T09:49:31;18.20;70.70
14585;DHT22;7379;51.506;11.876;2023-05-23T09:51:59;18.30;70.30
14585;DHT22;7379;51.506;11.876;2023-05-23T09:54:26;18.40;69.90
14585;DHT22;7379;51.506;11.876;2023-05-23T09:56:54;18.50;69.50
14585;DHT22;7379;51.506;11.876;2023-05-23T09:59:21;18.60;69.10
14585;DHT22;7379;51.506;11.876;2023-05-23T10:01:50;18.70;68.80
14585;DHT22;7379;51.506;11.876;2023-05-23T10:04:20;18.80;68.40
14585;DHT22;7379;51.506;11.876;2023-05-23T10:06:49;18.80;68.20
14585;DHT22;7379;51.506;11.876;2023-05-23T10:09:20;18.90;67.90
14585;DHT22;7379;51.506;11.876;2023-05-23T10:15:08;19.00;67.60
14585;DHT22;7379;51.506;11.876;2023-05-23T10:17:40;19.00;67.50
14585;DHT22;7379;51.506;11.876;2023-05-23T10:20:15;19.00;67.40
14585;DHT22;7379;51.506;11.876;2023-05-23T10:22:43;19.00;67.20
14585;DHT22;7379;51.506;11.876;2023-05-23T10:25:10;19.00;67.20
14585;DHT22;7379;51.506;11.876;2023-05-23T10:27:38;19.00;67.10
14585;DHT22;7379;51.506;11.876;2023-05-23T10:30:06;19.00;67.00
14585;DHT22;7379;51.506;11.876;2023-05-23T10:32:34;19.10;67.20
14585;DHT22;7379;51.506;11.876;2023-05-23T10:35:09;19.00;66.90
14585;DHT22;7379;51.506;11.876;2023-05-23T10:37:45;19.00;66.90
14585;DHT22;7379;51.506;11.876;2023-05-23T10:40:23;19.10;67.00
14585;DHT22;7379;51.506;11.876;2023-05-23T10:42:56;19.00;66.90
14585;DHT22;7379;51.506;11.876;2023-05-23T10:45:27;19.00;67.00
14585;DHT22;7379;51.506;11.876;2023-05-23T10:47:54;19.00;67.10
14585;DHT22;7379;51.506;11.876;2023-05-23T10:50:31;19.00;67.30
14585;DHT22;7379;51.506;11.876;2023-05-23T10:53:01;19.00;67.30
14585;DHT22;7379;51.506;11.876;2023-05-23T10:55:31;18.90;67.30
14585;DHT22;7379;51.506;11.876;2023-05-23T10:58:08;18.90;67.30
14585;DHT22;7379;51.506;11.876;2023-05-23T11:00:36;18.90;67.30
14585;DHT22;7379;51.506;11.876;2023-05-23T11:03:04;18.90;67.40
14585;DHT22;7379;51.506;11.876;2023-05-23T11:05:33;18.90;67.30
14585;DHT22;7379;51.506;11.876;2023-05-23T11:08:10;18.90;67.30
14585;DHT22;7379;51.506;11.876;2023-05-23T11:10:51;18.90;67.20
14585;DHT22;7379;51.506;11.876;2023-05-23T11:13:19;18.90;67.10
14585;DHT22;7379;51.506;11.876;2023-05-23T11:15:47;18.90;66.90
14585;DHT22;7379;51.506;11.876;2023-05-23T11:18:20;18.90;66.80
14585;DHT22;7379;51.506;11.876;2023-05-23T11:20:49;18.90;66.90
14585;DHT22;7379;51.506;11.876;2023-05-23T11:23:19;18.90;66.90
14585;DHT22;7379;51.506;11.876;2023-05-23T11:25:48;18.90;67.10
14585;DHT22;7379;51.506;11.876;2023-05-23T11:28:15;18.80;66.90
14585;DHT22;7379;51.506;11.876;2023-05-23T11:30:43;18.80;67.00
14585;DHT22;7379;51.506;11.876;2023-05-23T11:33:11;18.80;67.00
14585;DHT22;7379;51.506;11.876;2023-05-23T11:35:40;18.80;67.10
14585;DHT22;7379;51.506;11.876;2023-05-23T11:38:07;18.80;67.20
14585;DHT22;7379;51.506;11.876;2023-05-23T11:40:36;18.70;67.10
14585;DHT22;7379;51.506;11.876;2023-05-23T11:43:04;18.70;67.00
14585;DHT22;7379;51.506;11.876;2023-05-23T11:45:32;18.70;67.10
14585;DHT22;7379;51.506;11.876;2023-05-23T11:48:04;18.70;67.10
14585;DHT22;7379;51.506;11.876;2023-05-23T11:50:31;18.70;67.10
14585;DHT22;7379;51.506;11.876;2023-05-23T11:52:58;18.70;67.10
14585;DHT22;7379;51.506;11.876;2023-05-23T11:55:25;18.70;67.20
14585;DHT22;7379;51.506;11.876;2023-05-23T11:57:55;18.70;67.10
14585;DHT22;7379;51.506;11.876;2023-05-23T12:00:22;18.70;67.10
14585;DHT22;7379;51.506;11.876;2023-05-23T12:02:49;18.60;67.00
14585;DHT22;7379;51.506;11.876;2023-05-23T12:05:16;18.60;67.10
14585;DHT22;7379;51.506;11.876;2023-05-23T12:07:43;18.60;67.20
14585;DHT22;7379;51.506;11.876;2023-05-23T12:10:11;18.60;67.20
14585;DHT22;7379;51.506;11.876;2023-05-23T12:12:39;18.60;67.30
14585;DHT22;7379;51.506;11.876;2023-05-23T12:15:09;18.50;67.20
14585;DHT22;7379;51.506;11.876;2023-05-23T12:17:36;18.50;67.30
14585;DHT22;7379;51.506;11.876;2023-05-23T12:20:05;18.50;67.30
14585;DHT22;7379;51.506;11.876;2023-05-23T12:22:32;18.50;67.20
14585;DHT22;7379;51.506;11.876;2023-05-23T12:24:59;18.50;67.20
14585;DHT22;7379;51.506;11.876;2023-05-23T12:27:26;18.50;67.10
14585;DHT22;7379;51.506;11.876;2023-05-23T12:30:04;18.50;67.10
14585;DHT22;7379;51.506;11.876;2023-05-23T12:32:32;18.50;67.20
14585;DHT22;7379;51.506;11.876;2023-05-23T12:35:00;18.50;67.20
14585;DHT22;7379;51.506;11.876;2023-05-23T12:37:26;18.50;67.10
14585;DHT22;7379;51.506;11.876;2023-05-23T12:39:54;18.50;67.10
14585;DHT22;7379;51.506;11.876;2023-05-23T12:42:21;18.50;67.10
14585;DHT22;7379;51.506;11.876;2023-05-23T12:44:50;18.40;67.10
14585;DHT22;7379;51.506;11.876;2023-05-23T12:47:17;18.40;67.00
14585;DHT22;7379;51.506;11.876;2023-05-23T12:49:46;18.40;67.00
14585;DHT22;7379;51.506;11.876;2023-05-23T12:52:13;18.40;66.90
14585;DHT22;7379;51.506;11.876;2023-05-23T12:54:40;18.40;66.60
14585;DHT22;7379;51.506;11.876;2023-05-23T12:57:06;18.40;66.60
14585;DHT22;7379;51.506;11.876;2023-05-23T12:59:33;18.40;66.60
14585;DHT22;7379;51.506;11.876;2023-05-23T13:02:00;18.40;66.60
14585;DHT22;7379;51.506;11.876;2023-05-23T13:04:27;18.40;66.60
14585;DHT22;7379;51.506;11.876;2023-05-23T13:06:55;18.40;66.50
14585;DHT22;7379;51.506;11.876;2023-05-23T13:09:21;18.40;66.50
14585;DHT22;7379;51.506;11.876;2023-05-23T13:11:48;18.40;66.50
14585;DHT22;7379;51.506;11.876;2023-05-23T13:14:15;18.40;66.30
14585;DHT22;7379;51.506;11.876;2023-05-23T13:16:41;18.30;66.20
14585;DHT22;7379;51.506;11.876;2023-05-23T13:19:09;18.30;66.30
14585;DHT22;7379;51.506;11.876;2023-05-23T13:21:36;18.30;66.30
14585;DHT22;7379;51.506;11.876;2023-05-23T13:24:05;18.20;66.20
14585;DHT22;7379;51.506;11.876;2023-05-23T13:26:34;18.20;66.20
14585;DHT22;7379;51.506;11.876;2023-05-23T13:29:01;18.20;66.30
14585;DHT22;7379;51.506;11.876;2023-05-23T13:31:27;18.20;66.10
14585;DHT22;7379;51.506;11.876;2023-05-23T13:33:54;18.20;66.80
14585;DHT22;7379;51.506;11.876;2023-05-23T13:36:21;18.20;66.10
14585;DHT22;7379;51.506;11.876;2023-05-23T13:38:47;18.20;66.20
14585;DHT22;7379;51.506;11.876;2023-05-23T13:41:16;18.20;66.20
14585;DHT22;7379;51.506;11.876;2023-05-23T13:43:42;18.20;66.20
14585;DHT22;7379;51.506;11.876;2023-05-23T13:46:10;18.20;66.00
14585;DHT22;7379;51.506;11.876;2023-05-23T13:48:37;18.10;65.90
14585;DHT22;7379;51.506;11.876;2023-05-23T13:51:04;18.20;66.00
14585;DHT22;7379;51.506;11.876;2023-05-23T13:53:30;18.10;66.00
14585;DHT22;7379;51.506;11.876;2023-05-23T13:55:57;18.10;66.00
14585;DHT22;7379;51.506;11.876;2023-05-23T13:58:26;18.10;66.00
14585;DHT22;7379;51.506;11.876;2023-05-23T14:00:52;18.10;66.00
14585;DHT22;7379;51.506;11.876;2023-05-23T14:03:19;18.10;66.00
14585;DHT22;7379;51.506;11.876;2023-05-23T14:05:46;18.10;66.00
14585;DHT22;7379;51.506;11.876;2023-05-23T14:08:13;18.10;65.90
14585;DHT22;7379;51.506;11.876;2023-05-23T14:10:40;18.10;65.90
14585;DHT22;7379;51.506;11.876;2023-05-23T14:13:07;18.00;65.90
14585;DHT22;7379;51.506;11.876;2023-05-23T14:15:35;18.00;66.10
14585;DHT22;7379;51.506;11.876;2023-05-23T14:18:02;18.00;66.10
14585;DHT22;7379;51.506;11.876;2023-05-23T14:20:29;18.00;66.00
14585;DHT22;7379;51.506;11.876;2023-05-23T14:22:57;17.90;66.00
14585;DHT22;7379;51.506;11.876;2023-05-23T14:25:24;17.90;66.10
14585;DHT22;7379;51.506;11.876;2023-05-23T14:27:51;17.70;65.40
14585;DHT22;7379;51.506;11.876;2023-05-23T14:30:17;17.70;65.80
14585;DHT22;7379;51.506;11.876;2023-05-23T14:32:45;17.60;65.90
14585;DHT22;7379;51.506;11.876;2023-05-23T14:35:12;17.60;66.00
14585;DHT22;7379;51.506;11.876;2023-05-23T14:37:39;17.60;66.00
14585;DHT22;7379;51.506;11.876;2023-05-23T14:40:07;17.70;66.10
14585;DHT22;7379;51.506;11.876;2023-05-23T14:42:34;17.70;66.10
14585;DHT22;7379;51.506;11.876;2023-05-23T14:45:01;17.70;66.00
14585;DHT22;7379;51.506;11.876;2023-05-23T14:47:28;17.70;65.80
14585;DHT22;7379;51.506;11.876;2023-05-23T14:49:56;17.70;65.70
14585;DHT22;7379;51.506;11.876;2023-05-23T14:52:23;17.70;65.80
14585;DHT22;7379;51.506;11.876;2023-05-23T14:54:49;17.60;65.90
14585;DHT22;7379;51.506;11.876;2023-05-23T14:57:16;17.60;65.90
14585;DHT22;7379;51.506;11.876;2023-05-23T14:59:43;17.60;65.80
14585;DHT22;7379;51.506;11.876;2023-05-23T15:02:11;17.60;65.80
14585;DHT22;7379;51.506;11.876;2023-05-23T15:04:37;17.60;65.80
14585;DHT22;7379;51.506;11.876;2023-05-23T15:07:05;17.60;65.80
14585;DHT22;7379;51.506;11.876;2023-05-23T15:09:32;17.60;65.80
14585;DHT22;7379;51.506;11.876;2023-05-23T15:11:59;17.60;65.70
14585;DHT22;7379;51.506;11.876;2023-05-23T15:14:26;17.60;65.70
14585;DHT22;7379;51.506;11.876;2023-05-23T15:16:54;17.60;65.70
14585;DHT22;7379;51.506;11.876;2023-05-23T15:19:21;17.60;65.70
14585;DHT22;7379;51.506;11.876;2023-05-23T15:21:48;17.50;65.50
14585;DHT22;7379;51.506;11.876;2023-05-23T15:24:16;17.50;65.50
14585;DHT22;7379;51.506;11.876;2023-05-23T15:26:43;17.50;65.60
14585;DHT22;7379;51.506;11.876;2023-05-23T15:29:09;17.50;65.60
14585;DHT22;7379;51.506;11.876;2023-05-23T15:31:37;17.40;65.30
14585;DHT22;7379;51.506;11.876;2023-05-23T15:34:04;17.40;65.30
14585;DHT22;7379;51.506;11.876;2023-05-23T15:36:30;17.40;65.30